CheckWX is a tool to help pilots better visualize weather data.  It is not intended as a substitute for an official pre-flight weather briefing.

04:01:36 UTC

KEED METAR
Needles Airport Airport
Needles, California, USA
Current

1 hour ago

KEED 110256Z AUTO 19009KT 10SM CLR 42/07 A2982 RMK AO2 SLP059 T04220072 56004
Observed
Jul-11 @ 02:56 UTC
Wind
  • 190° at 9 KTS
Visibility
10 SM
Flight Rules
VFR
Cloud Levels
  • Clear skies
Temperature
42°C / 108°F
Dewpoint
C / 45°F
Humidity
12%
Altimeter
29.82" Hg
Pressure
1009.82 hPa
Previous

2 hours ago

KEED 110156Z AUTO 19009KT 10SM FEW110 43/07 A2983 RMK AO2 SLP060 T04330067
Observed
Jul-11 @ 01:56 UTC
Wind
  • 190° at 9 KTS
Visibility
10 SM
Flight Rules
VFR
Cloud Levels
  • Few at 11,000' AGL
Temperature
43°C / 109°F
Dewpoint
C / 45°F
Humidity
11%
Altimeter
29.83" Hg
Pressure
1010.12 hPa
Previous

3 hours ago

KEED 110056Z AUTO 19006KT 10SM FEW110 44/06 A2983 RMK AO2 SLP061 T04390061
Observed
Jul-11 @ 00:56 UTC
Wind
  • 190° at 6 KTS
Visibility
10 SM
Flight Rules
VFR
Cloud Levels
  • Few at 11,000' AGL
Temperature
44°C / 111°F
Dewpoint
C / 43°F
Humidity
10%
Altimeter
29.83" Hg
Pressure
1010.12 hPa